sensor_id;sensor_type;location;lat;lon;timestamp;pressure;altitude;pressure_sealevel;temperature;humidity
31299;BME280;17927;52.350;13.402;2022-08-14T00:01:41;101084.22;;;25.95;54.27
31299;BME280;17927;52.350;13.402;2022-08-14T00:04:06;101082.53;;;25.94;54.48
31299;BME280;17927;52.350;13.402;2022-08-14T00:06:31;101089.38;;;25.91;54.75
31299;BME280;17927;52.350;13.402;2022-08-14T00:08:56;101086.25;;;25.88;54.54
31299;BME280;17927;52.350;13.402;2022-08-14T00:11:22;101089.25;;;25.86;55.03
31299;BME280;17927;52.350;13.402;2022-08-14T00:13:47;101093.09;;;25.85;54.72
31299;BME280;17927;52.350;13.402;2022-08-14T00:16:13;101086.72;;;25.84;55.19
31299;BME280;17927;52.350;13.402;2022-08-14T00:18:38;101092.25;;;25.84;55.26
31299;BME280;17927;52.350;13.402;2022-08-14T00:21:04;101085.91;;;25.84;55.44
31299;BME280;17927;52.350;13.402;2022-08-14T00:23:29;101083.97;;;25.84;55.55
31299;BME280;17927;52.350;13.402;2022-08-14T00:25:55;101088.06;;;25.82;55.70
31299;BME280;17927;52.350;13.402;2022-08-14T00:28:21;101086.38;;;25.81;55.73
31299;BME280;17927;52.350;13.402;2022-08-14T00:30:54;101078.06;;;25.81;55.92
31299;BME280;17927;52.350;13.402;2022-08-14T00:33:23;101087.44;;;25.80;55.88
31299;BME280;17927;52.350;13.402;2022-08-14T00:35:48;101085.97;;;25.77;56.22
31299;BME280;17927;52.350;13.402;2022-08-14T00:38:13;101078.78;;;25.76;56.06
31299;BME280;17927;52.350;13.402;2022-08-14T00:40:39;101078.19;;;25.74;56.18
31299;BME280;17927;52.350;13.402;2022-08-14T00:43:05;101074.56;;;25.74;56.52
31299;BME280;17927;52.350;13.402;2022-08-14T00:45:30;101073.72;;;25.73;56.20
31299;BME280;17927;52.350;13.402;2022-08-14T00:47:55;101075.88;;;25.71;56.25
31299;BME280;17927;52.350;13.402;2022-08-14T00:50:22;101078.03;;;25.69;56.67
31299;BME280;17927;52.350;13.402;2022-08-14T00:52:50;101073.81;;;25.66;56.52
31299;BME280;17927;52.350;13.402;2022-08-14T00:55:17;101072.13;;;25.65;56.31
31299;BME280;17927;52.350;13.402;2022-08-14T00:57:43;101076.81;;;25.65;56.44
31299;BME280;17927;52.350;13.402;2022-08-14T01:00:13;101072.59;;;25.62;56.69
31299;BME280;17927;52.350;13.402;2022-08-14T01:02:43;101070.31;;;25.59;56.97
31299;BME280;17927;52.350;13.402;2022-08-14T01:05:10;101065.03;;;25.58;56.78
31299;BME280;17927;52.350;13.402;2022-08-14T01:07:51;101058.88;;;25.56;57.11
31299;BME280;17927;52.350;13.402;2022-08-14T01:10:19;101062.97;;;25.53;57.20
31299;BME280;17927;52.350;13.402;2022-08-14T01:12:45;101059.09;;;25.54;56.76
31299;BME280;17927;52.350;13.402;2022-08-14T01:15:13;101062.09;;;25.52;56.83
31299;BME280;17927;52.350;13.402;2022-08-14T01:17:38;101069.78;;;25.50;57.09
31299;BME280;17927;52.350;13.402;2022-08-14T01:20:23;101071.13;;;25.48;57.01
31299;BME280;17927;52.350;13.402;2022-08-14T01:23:12;101062.47;;;25.44;56.95
31299;BME280;17927;52.350;13.402;2022-08-14T01:25:38;101060.78;;;25.43;57.21
31299;BME280;17927;52.350;13.402;2022-08-14T01:28:03;101067.38;;;25.42;56.77
31299;BME280;17927;52.350;13.402;2022-08-14T01:30:30;101056.31;;;25.42;56.86
31299;BME280;17927;52.350;13.402;2022-08-14T01:32:56;101061.84;;;25.42;57.03
31299;BME280;17927;52.350;13.402;2022-08-14T01:35:22;101060.13;;;25.41;57.12
31299;BME280;17927;52.350;13.402;2022-08-14T01:37:48;101057.00;;;25.37;57.10
31299;BME280;17927;52.350;13.402;2022-08-14T01:40:13;101060.59;;;25.38;57.22
31299;BME280;17927;52.350;13.402;2022-08-14T01:42:41;101058.91;;;25.37;57.50
31299;BME280;17927;52.350;13.402;2022-08-14T01:45:07;101062.75;;;25.36;57.25
31299;BME280;17927;52.350;13.402;2022-08-14T01:47:36;101056.38;;;25.35;57.48
31299;BME280;17927;52.350;13.402;2022-08-14T01:50:03;101066.59;;;25.35;57.37
31299;BME280;17927;52.350;13.402;2022-08-14T01:52:32;101056.38;;;25.35;57.46
31299;BME280;17927;52.350;13.402;2022-08-14T01:54:58;101058.28;;;25.35;57.35
31299;BME280;17927;52.350;13.402;2022-08-14T01:57:24;101059.16;;;25.35;57.34
31299;BME280;17927;52.350;13.402;2022-08-14T01:59:50;101054.91;;;25.33;57.39
31299;BME280;17927;52.350;13.402;2022-08-14T02:02:15;101056.84;;;25.32;57.57
31299;BME280;17927;52.350;13.402;2022-08-14T02:04:41;101066.22;;;25.31;57.42
31299;BME280;17927;52.350;13.402;2022-08-14T02:07:07;101057.91;;;25.31;57.61
31299;BME280;17927;52.350;13.402;2022-08-14T02:09:36;101056.00;;;25.32;57.61
31299;BME280;17927;52.350;13.402;2022-08-14T02:12:07;101048.78;;;25.31;57.72
31299;BME280;17927;52.350;13.402;2022-08-14T02:14:32;101053.72;;;25.29;57.58
31299;BME280;17927;52.350;13.402;2022-08-14T02:16:59;101043.72;;;25.28;57.75
31299;BME280;17927;52.350;13.402;2022-08-14T02:19:27;101048.19;;;25.29;57.84
31299;BME280;17927;52.350;13.402;2022-08-14T02:21:54;101045.44;;;25.29;57.80
31299;BME280;17927;52.350;13.402;2022-08-14T02:24:23;101039.91;;;25.29;57.85
31299;BME280;17927;52.350;13.402;2022-08-14T02:26:50;101035.19;;;25.29;57.91
31299;BME280;17927;52.350;13.402;2022-08-14T02:29:19;101041.59;;;25.30;57.90
31299;BME280;17927;52.350;13.402;2022-08-14T02:31:49;101037.72;;;25.31;58.20
31299;BME280;17927;52.350;13.402;2022-08-14T02:34:18;101046.25;;;25.29;58.23
31299;BME280;17927;52.350;13.402;2022-08-14T02:36:46;101032.19;;;25.31;58.03
31299;BME280;17927;52.350;13.402;2022-08-14T02:39:13;101038.56;;;25.31;58.02
31299;BME280;17927;52.350;13.402;2022-08-14T02:41:39;101027.50;;;25.31;58.23
31299;BME280;17927;52.350;13.402;2022-08-14T02:44:06;101028.34;;;25.32;58.11
31299;BME280;17927;52.350;13.402;2022-08-14T02:46:33;101027.50;;;25.31;58.35
31299;BME280;17927;52.350;13.402;2022-08-14T02:48:58;101021.13;;;25.31;58.04
31299;BME280;17927;52.350;13.402;2022-08-14T02:51:26;101016.91;;;25.28;58.13
31299;BME280;17927;52.350;13.402;2022-08-14T02:53:54;101027.97;;;25.28;58.31
31299;BME280;17927;52.350;13.402;2022-08-14T02:56:19;101019.94;;;25.27;58.23
31299;BME280;17927;52.350;13.402;2022-08-14T02:58:50;101022.09;;;25.24;58.40
31299;BME280;17927;52.350;13.402;2022-08-14T03:01:17;101015.69;;;25.24;58.54
31299;BME280;17927;52.350;13.402;2022-08-14T03:03:45;101020.16;;;25.25;58.53
31299;BME280;17927;52.350;13.402;2022-08-14T03:06:12;101017.16;;;25.27;58.31
31299;BME280;17927;52.350;13.402;2022-08-14T03:08:39;101016.09;;;25.28;58.29
31299;BME280;17927;52.350;13.402;2022-08-14T03:11:07;101010.56;;;25.28;58.46
31299;BME280;17927;52.350;13.402;2022-08-14T03:13:34;101008.63;;;25.28;58.37
31299;BME280;17927;52.350;13.402;2022-08-14T03:16:00;101004.19;;;25.27;58.38
31299;BME280;17927;52.350;13.402;2022-08-14T03:18:27;101007.81;;;25.28;58.52
31299;BME280;17927;52.350;13.402;2022-08-14T03:20:52;101005.03;;;25.28;58.53
31299;BME280;17927;52.350;13.402;2022-08-14T03:23:18;101008.00;;;25.26;58.37
31299;BME280;17927;52.350;13.402;2022-08-14T03:25:44;101004.19;;;25.27;58.30
31299;BME280;17927;52.350;13.402;2022-08-14T03:28:10;101003.56;;;25.25;58.44
31299;BME280;17927;52.350;13.402;2022-08-14T03:30:36;101007.19;;;25.26;58.28
31299;BME280;17927;52.350;13.402;2022-08-14T03:33:03;100994.44;;;25.24;58.50
31299;BME280;17927;52.350;13.402;2022-08-14T03:35:29;101000.19;;;25.23;58.35
31299;BME280;17927;52.350;13.402;2022-08-14T03:37:55;100994.66;;;25.23;58.45
31299;BME280;17927;52.350;13.402;2022-08-14T03:40:21;100995.97;;;25.20;58.58
31299;BME280;17927;52.350;13.402;2022-08-14T03:42:47;100993.22;;;25.20;58.41
31299;BME280;17927;52.350;13.402;2022-08-14T03:45:13;100991.78;;;25.18;58.56
31299;BME280;17927;52.350;13.402;2022-08-14T03:47:39;100986.47;;;25.16;58.36
31299;BME280;17927;52.350;13.402;2022-08-14T03:50:07;100983.69;;;25.16;58.56
31299;BME280;17927;52.350;13.402;2022-08-14T03:52:33;100992.25;;;25.15;58.79
31299;BME280;17927;52.350;13.402;2022-08-14T03:54:59;100989.00;;;25.18;58.81
31299;BME280;17927;52.350;13.402;2022-08-14T03:57:25;100993.06;;;25.15;58.44
31299;BME280;17927;52.350;13.402;2022-08-14T03:59:53;100990.31;;;25.15;59.13
31299;BME280;17927;52.350;13.402;2022-08-14T04:02:18;100984.78;;;25.15;59.00
31299;BME280;17927;52.350;13.402;2022-08-14T04:04:47;100989.22;;;25.16;58.67
31299;BME280;17927;52.350;13.402;2022-08-14T04:07:13;100986.47;;;25.16;58.63
31299;BME280;17927;52.350;13.402;2022-08-14T04:09:38;100982.63;;;25.17;58.96
31299;BME280;17927;52.350;13.402;2022-08-14T04:12:04;100989.00;;;25.18;58.52
31299;BME280;17927;52.350;13.402;2022-08-14T04:14:29;100974.34;;;25.17;58.71
31299;BME280;17927;52.350;13.402;2022-08-14T04:16:55;100986.47;;;25.16;58.65
31299;BME280;17927;52.350;13.402;2022-08-14T04:19:20;100987.31;;;25.17;58.56
31299;BME280;17927;52.350;13.402;2022-08-14T04:21:47;100992.00;;;25.16;58.94
31299;BME280;17927;52.350;13.402;2022-08-14T04:24:14;100991.16;;;25.16;59.14
31299;BME280;17927;52.350;13.402;2022-08-14T04:26:40;100989.22;;;25.16;58.77
31299;BME280;17927;52.350;13.402;2022-08-14T04:29:05;100992.00;;;25.16;59.00
31299;BME280;17927;52.350;13.402;2022-08-14T04:31:31;100989.22;;;25.16;58.87
31299;BME280;17927;52.350;13.402;2022-08-14T04:33:57;100995.63;;;25.17;58.98
31299;BME280;17927;52.350;13.402;2022-08-14T04:36:22;100985.41;;;25.17;59.04
31299;BME280;17927;52.350;13.402;2022-08-14T04:38:47;100992.00;;;25.16;59.13
31299;BME280;17927;52.350;13.402;2022-08-14T04:41:32;100988.16;;;25.17;59.21
31299;BME280;17927;52.350;13.402;2022-08-14T04:44:16;100990.09;;;25.17;59.48
31299;BME280;17927;52.350;13.402;2022-08-14T04:46:41;100983.50;;;25.18;59.17
31299;BME280;17927;52.350;13.402;2022-08-14T04:49:27;100984.56;;;25.17;59.20
31299;BME280;17927;52.350;13.402;2022-08-14T04:51:53;100987.69;;;25.20;59.48
31299;BME280;17927;52.350;13.402;2022-08-14T04:54:18;100983.03;;;25.21;59.48
31299;BME280;17927;52.350;13.402;2022-08-14T04:56:43;100985.53;;;25.22;59.60
31299;BME280;17927;52.350;13.402;2022-08-14T04:59:08;100983.03;;;25.21;59.16
31299;BME280;17927;52.350;13.402;2022-08-14T05:01:34;100985.28;;;25.24;59.60
31299;BME280;17927;52.350;13.402;2022-08-14T05:03:59;100985.06;;;25.26;59.79
31299;BME280;17927;52.350;13.402;2022-08-14T05:06:24;100982.66;;;25.29;59.55
31299;BME280;17927;52.350;13.402;2022-08-14T05:08:49;100980.06;;;25.34;59.75
31299;BME280;17927;52.350;13.402;2022-08-14T05:11:15;100973.81;;;25.39;59.79
31299;BME280;17927;52.350;13.402;2022-08-14T05:13:43;100973.38;;;25.42;60.02
31299;BME280;17927;52.350;13.402;2022-08-14T05:16:08;100979.88;;;25.48;60.04
31299;BME280;17927;52.350;13.402;2022-08-14T05:18:36;100965.31;;;25.52;60.08
31299;BME280;17927;52.350;13.402;2022-08-14T05:21:05;100969.66;;;25.60;59.98
31299;BME280;17927;52.350;13.402;2022-08-14T05:23:32;100970.63;;;25.66;60.26
31299;BME280;17927;52.350;13.402;2022-08-14T05:25:59;100981.34;;;25.74;60.07
31299;BME280;17927;52.350;13.402;2022-08-14T05:28:28;100973.75;;;25.81;60.16
31299;BME280;17927;52.350;13.402;2022-08-14T05:31:00;100970.88;;;25.88;59.93
31299;BME280;17927;52.350;13.402;2022-08-14T05:33:27;100970.75;;;25.95;59.78
31299;BME280;17927;52.350;13.402;2022-08-14T05:35:55;100969.34;;;26.04;59.72
31299;BME280;17927;52.350;13.402;2022-08-14T05:38:28;100954.66;;;26.16;59.65
31299;BME280;17927;52.350;13.402;2022-08-14T05:40:54;100957.41;;;26.27;59.67
31299;BME280;17927;52.350;13.402;2022-08-14T05:43:21;100953.31;;;26.42;59.58
31299;BME280;17927;52.350;13.402;2022-08-14T05:45:46;100954.69;;;26.56;59.29
31299;BME280;17927;52.350;13.402;2022-08-14T05:48:13;100947.78;;;26.71;59.24
31299;BME280;17927;52.350;13.402;2022-08-14T05:50:39;100951.63;;;26.82;59.13
31299;BME280;17927;52.350;13.402;2022-08-14T05:53:04;100952.41;;;26.94;58.97
31299;BME280;17927;52.350;13.402;2022-08-14T05:55:30;100944.88;;;27.07;58.58
31299;BME280;17927;52.350;13.402;2022-08-14T05:57:57;100934.56;;;27.19;58.40
31299;BME280;17927;52.350;13.402;2022-08-14T06:00:27;100941.13;;;27.30;58.05
31299;BME280;17927;52.350;13.402;2022-08-14T06:02:53;100944.09;;;27.40;58.10
31299;BME280;17927;52.350;13.402;2022-08-14T06:05:20;100943.44;;;27.50;57.84
31299;BME280;17927;52.350;13.402;2022-08-14T06:07:46;100937.47;;;27.58;57.72
31299;BME280;17927;52.350;13.402;2022-08-14T06:10:11;100940.66;;;27.67;57.46
31299;BME280;17927;52.350;13.402;2022-08-14T06:12:37;100946.63;;;27.76;57.31
31299;BME280;17927;52.350;13.402;2022-08-14T06:15:04;100936.84;;;27.90;57.37
31299;BME280;17927;52.350;13.402;2022-08-14T06:17:30;100937.31;;;28.04;57.49
31299;BME280;17927;52.350;13.402;2022-08-14T06:19:55;100927.50;;;28.14;56.96
31299;BME280;17927;52.350;13.402;2022-08-14T06:22:20;100924.53;;;28.20;56.59
31299;BME280;17927;52.350;13.402;2022-08-14T06:24:45;100912.31;;;28.21;56.28
31299;BME280;17927;52.350;13.402;2022-08-14T06:27:11;100917.88;;;28.21;56.03
31299;BME280;17927;52.350;13.402;2022-08-14T06:29:37;100920.06;;;28.19;55.84
31299;BME280;17927;52.350;13.402;2022-08-14T06:32:02;100906.47;;;28.18;55.57
31299;BME280;17927;52.350;13.402;2022-08-14T06:34:28;100910.34;;;28.17;55.99
31299;BME280;17927;52.350;13.402;2022-08-14T06:36:53;100915.34;;;28.20;56.08
31299;BME280;17927;52.350;13.402;2022-08-14T06:39:20;100913.50;;;28.25;56.14
31299;BME280;17927;52.350;13.402;2022-08-14T06:41:46;100917.41;;;28.30;56.04
31299;BME280;17927;52.350;13.402;2022-08-14T06:44:12;100932.16;;;28.30;55.73
31299;BME280;17927;52.350;13.402;2022-08-14T06:46:37;100929.03;;;28.26;55.57
31299;BME280;17927;52.350;13.402;2022-08-14T06:49:02;100933.19;;;28.24;55.36
31299;BME280;17927;52.350;13.402;2022-08-14T06:51:27;100938.72;;;28.24;55.71
31299;BME280;17927;52.350;13.402;2022-08-14T06:53:53;100930.41;;;28.24;55.47
31299;BME280;17927;52.350;13.402;2022-08-14T06:56:18;100932.94;;;28.25;55.84
31299;BME280;17927;52.350;13.402;2022-08-14T06:58:43;100931.00;;;28.26;55.79
31299;BME280;17927;52.350;13.402;2022-08-14T07:01:09;100922.97;;;28.30;55.34
31299;BME280;17927;52.350;13.402;2022-08-14T07:03:54;100915.22;;;28.32;55.31
31299;BME280;17927;52.350;13.402;2022-08-14T07:06:38;100912.75;;;28.35;55.27
31299;BME280;17927;52.350;13.402;2022-08-14T07:09:03;100911.47;;;28.43;55.48
31299;BME280;17927;52.350;13.402;2022-08-14T07:11:29;100904.63;;;28.51;55.38
31299;BME280;17927;52.350;13.402;2022-08-14T07:13:54;100903.06;;;28.60;55.20
31299;BME280;17927;52.350;13.402;2022-08-14T07:16:19;100901.25;;;28.71;54.76
31299;BME280;17927;52.350;13.402;2022-08-14T07:18:45;100909.13;;;28.79;54.32
31299;BME280;17927;52.350;13.402;2022-08-14T07:21:10;100907.00;;;28.86;54.17
31299;BME280;17927;52.350;13.402;2022-08-14T07:23:36;100910.38;;;28.94;54.25
31299;BME280;17927;52.350;13.402;2022-08-14T07:26:03;100908.25;;;29.01;53.89
31299;BME280;17927;52.350;13.402;2022-08-14T07:28:35;100899.94;;;29.06;53.64
31299;BME280;17927;52.350;13.402;2022-08-14T07:31:05;100901.94;;;29.11;53.51
31299;BME280;17927;52.350;13.402;2022-08-14T07:33:36;100904.50;;;29.17;52.90
31299;BME280;17927;52.350;13.402;2022-08-14T07:36:04;100907.88;;;29.25;52.86
31299;BME280;17927;52.350;13.402;2022-08-14T07:38:30;100903.78;;;29.32;52.91
31299;BME280;17927;52.350;13.402;2022-08-14T07:40:55;100899.69;;;29.40;52.77
31299;BME280;17927;52.350;13.402;2022-08-14T07:43:21;100895.06;;;29.51;52.88
31299;BME280;17927;52.350;13.402;2022-08-14T07:45:46;100901.78;;;29.60;53.03
31299;BME280;17927;52.350;13.402;2022-08-14T07:48:12;100896.03;;;29.72;52.92
31299;BME280;17927;52.350;13.402;2022-08-14T07:50:37;100894.97;;;29.84;52.92
31299;BME280;17927;52.350;13.402;2022-08-14T07:53:03;100891.19;;;29.95;52.66
31299;BME280;17927;52.350;13.402;2022-08-14T07:55:30;100885.66;;;30.05;51.40
31299;BME280;17927;52.350;13.402;2022-08-14T07:57:56;100882.34;;;30.14;51.52
31299;BME280;17927;52.350;13.402;2022-08-14T08:00:23;100880.16;;;30.21;50.92
31299;BME280;17927;52.350;13.402;2022-08-14T08:02:51;100870.44;;;30.29;50.62
31299;BME280;17927;52.350;13.402;2022-08-14T08:05:18;100869.34;;;30.40;50.00
31299;BME280;17927;52.350;13.402;2022-08-14T08:07:45;100869.09;;;30.47;49.78
31299;BME280;17927;52.350;13.402;2022-08-14T08:10:13;100880.56;;;30.56;49.60
31299;BME280;17927;52.350;13.402;2022-08-14T08:15:30;100874.78;;;30.73;48.90
31299;BME280;17927;52.350;13.402;2022-08-14T08:17:57;100866.72;;;30.81;48.67
31299;BME280;17927;52.350;13.402;2022-08-14T08:20:25;100868.09;;;30.89;48.52
31299;BME280;17927;52.350;13.402;2022-08-14T08:22:51;100875.34;;;30.95;48.40
31299;BME280;17927;52.350;13.402;2022-08-14T08:25:18;100862.25;;;31.01;48.08
31299;BME280;17927;52.350;13.402;2022-08-14T08:28:04;100863.63;;;31.09;47.16
31299;BME280;17927;52.350;13.402;2022-08-14T08:30:32;100856.13;;;31.14;47.89
31299;BME280;17927;52.350;13.402;2022-08-14T08:32:59;100864.22;;;31.26;46.88
31299;BME280;17927;52.350;13.402;2022-08-14T08:35:28;100864.50;;;31.35;46.77
31299;BME280;17927;52.350;13.402;2022-08-14T08:38:00;100862.81;;;31.44;45.66
31299;BME280;17927;52.350;13.402;2022-08-14T08:40:28;100852.19;;;31.52;45.84
31299;BME280;17927;52.350;13.402;2022-08-14T08:42:54;100858.84;;;31.61;45.37
31299;BME280;17927;52.350;13.402;2022-08-14T08:45:20;100850.22;;;31.68;45.25
31299;BME280;17927;52.350;13.402;2022-08-14T08:47:46;100846.31;;;31.74;45.02
31299;BME280;17927;52.350;13.402;2022-08-14T08:50:23;100842.38;;;31.80;44.13
31299;BME280;17927;52.350;13.402;2022-08-14T08:52:53;100839.03;;;31.83;44.16
31299;BME280;17927;52.350;13.402;2022-08-14T08:55:36;100833.69;;;31.92;44.28
31299;BME280;17927;52.350;13.402;2022-08-14T08:58:05;100834.50;;;31.98;43.63
31299;BME280;17927;52.350;13.402;2022-08-14T09:00:33;100834.75;;;32.01;42.96
31299;BME280;17927;52.350;13.402;2022-08-14T09:03:08;100833.91;;;32.06;42.66
31299;BME280;17927;52.350;13.402;2022-08-14T09:05:35;100817.38;;;32.10;43.76
31299;BME280;17927;52.350;13.402;2022-08-14T09:08:21;100827.44;;;32.16;43.52
31299;BME280;17927;52.350;13.402;2022-08-14T09:10:48;100823.50;;;32.17;42.75
31299;BME280;17927;52.350;13.402;2022-08-14T09:13:14;100820.97;;;32.20;42.42
31299;BME280;17927;52.350;13.402;2022-08-14T09:15:42;100826.28;;;32.22;42.28
31299;BME280;17927;52.350;13.402;2022-08-14T09:18:09;100813.16;;;32.23;42.69
31299;BME280;17927;52.350;13.402;2022-08-14T09:20:37;100812.59;;;32.26;42.47
31299;BME280;17927;52.350;13.402;2022-08-14T09:23:04;100810.91;;;32.30;42.79
31299;BME280;17927;52.350;13.402;2022-08-14T09:25:30;100823.16;;;32.34;42.20
31299;BME280;17927;52.350;13.402;2022-08-14T09:27:55;100819.53;;;32.39;42.42
31299;BME280;17927;52.350;13.402;2022-08-14T09:30:20;100820.31;;;32.44;42.31
31299;BME280;17927;52.350;13.402;2022-08-14T09:33:02;100807.41;;;32.48;41.77
31299;BME280;17927;52.350;13.402;2022-08-14T09:35:46;100810.19;;;32.54;41.88
31299;BME280;17927;52.350;13.402;2022-08-14T09:38:43;100800.66;;;32.60;41.93
31299;BME280;17927;52.350;13.402;2022-08-14T09:46:52;100799.09;;;32.78;42.21
31299;BME280;17927;52.350;13.402;2022-08-14T09:49:29;100797.38;;;32.87;40.25
31299;BME280;17927;52.350;13.402;2022-08-14T09:52:03;100790.91;;;32.92;39.93
31299;BME280;17927;52.350;13.402;2022-08-14T09:54:38;100790.28;;;33.00;39.41
31299;BME280;17927;52.350;13.402;2022-08-14T09:57:04;100784.09;;;33.03;39.54
31299;BME280;17927;52.350;13.402;2022-08-14T09:59:39;100781.25;;;33.08;38.87
31299;BME280;17927;52.350;13.402;2022-08-14T10:02:26;100787.91;;;33.13;38.43
31299;BME280;17927;52.350;13.402;2022-08-14T10:05:07;100769.09;;;33.18;38.50
31299;BME280;17927;52.350;13.402;2022-08-14T10:07:45;100768.75;;;33.25;38.36
31299;BME280;17927;52.350;13.402;2022-08-14T10:10:43;100764.78;;;33.31;38.32
31299;BME280;17927;52.350;13.402;2022-08-14T10:13:23;100762.22;;;33.35;38.26
31299;BME280;17927;52.350;13.402;2022-08-14T10:15:50;100754.94;;;33.39;38.46
31299;BME280;17927;52.350;13.402;2022-08-14T10:18:17;100739.13;;;33.48;38.24
31299;BME280;17927;52.350;13.402;2022-08-14T10:20:57;100739.63;;;33.55;37.84
31299;BME280;17927;52.350;13.402;2022-08-14T10:23:27;100742.03;;;33.62;38.37
31299;BME280;17927;52.350;13.402;2022-08-14T10:25:57;100735.53;;;33.67;37.73
31299;BME280;17927;52.350;13.402;2022-08-14T10:28:40;100736.63;;;33.71;37.20
31299;BME280;17927;52.350;13.402;2022-08-14T10:31:21;100737.44;;;33.71;36.97
31299;BME280;17927;52.350;13.402;2022-08-14T10:34:01;100723.19;;;33.49;38.65
31299;BME280;17927;52.350;13.402;2022-08-14T10:36:29;100707.38;;;33.58;38.31
31299;BME280;17927;52.350;13.402;2022-08-14T10:38:56;100702.69;;;33.73;37.12
31299;BME280;17927;52.350;13.402;2022-08-14T10:41:33;100698.38;;;33.80;36.72
31299;BME280;17927;52.350;13.402;2022-08-14T10:44:17;100700.00;;;33.86;35.89
31299;BME280;17927;52.350;13.402;2022-08-14T10:46:45;100700.78;;;33.92;36.10
31299;BME280;17927;52.350;13.402;2022-08-14T10:49:20;100694.28;;;33.97;36.26
31299;BME280;17927;52.350;13.402;2022-08-14T10:51:57;100690.66;;;33.96;35.88
31299;BME280;17927;52.350;13.402;2022-08-14T10:54:39;100675.19;;;33.99;35.90
31299;BME280;17927;52.350;13.402;2022-08-14T10:57:24;100678.75;;;34.05;36.24
31299;BME280;17927;52.350;13.402;2022-08-14T10:59:58;100669.94;;;34.11;35.56
31299;BME280;17927;52.350;13.402;2022-08-14T11:02:28;100665.13;;;34.17;35.79
31299;BME280;17927;52.350;13.402;2022-08-14T11:07:25;100670.72;;;34.17;36.38
31299;BME280;17927;52.350;13.402;2022-08-14T11:09:59;100674.91;;;34.34;36.21
31299;BME280;17927;52.350;13.402;2022-08-14T11:12:26;100665.84;;;34.42;35.03
31299;BME280;17927;52.350;13.402;2022-08-14T11:14:56;100658.72;;;34.50;35.22
31299;BME280;17927;52.350;13.402;2022-08-14T11:17:25;100658.84;;;34.58;34.68
31299;BME280;17927;52.350;13.402;2022-08-14T11:19:54;100658.09;;;34.67;34.21
31299;BME280;17927;52.350;13.402;2022-08-14T11:22:24;100674.75;;;34.77;34.41
31299;BME280;17927;52.350;13.402;2022-08-14T11:24:53;100653.88;;;34.83;34.58
31299;BME280;17927;52.350;13.402;2022-08-14T11:27:20;100668.88;;;34.92;34.13
31299;BME280;17927;52.350;13.402;2022-08-14T11:29:49;100660.88;;;35.00;33.51
31299;BME280;17927;52.350;13.402;2022-08-14T11:32:16;100661.31;;;35.07;33.26
31299;BME280;17927;52.350;13.402;2022-08-14T11:34:44;100657.25;;;35.13;33.11
31299;BME280;17927;52.350;13.402;2022-08-14T11:37:10;100652.69;;;35.17;32.64
31299;BME280;17927;52.350;13.402;2022-08-14T11:39:36;100652.25;;;35.24;32.72
31299;BME280;17927;52.350;13.402;2022-08-14T11:42:02;100650.16;;;35.30;33.18
31299;BME280;17927;52.350;13.402;2022-08-14T11:44:28;100650.59;;;35.37;32.70
31299;BME280;17927;52.350;13.402;2022-08-14T11:46:53;100646.84;;;35.42;32.21
31299;BME280;17927;52.350;13.402;2022-08-14T11:49:27;100643.94;;;35.47;31.87
31299;BME280;17927;52.350;13.402;2022-08-14T11:51:53;100641.84;;;35.53;32.01
31299;BME280;17927;52.350;13.402;2022-08-14T11:54:19;100638.94;;;35.58;32.58
31299;BME280;17927;52.350;13.402;2022-08-14T11:56:44;100639.66;;;35.63;31.58
31299;BME280;17927;52.350;13.402;2022-08-14T11:59:15;100642.84;;;35.71;31.05
31299;BME280;17927;52.350;13.402;2022-08-14T12:01:45;100636.59;;;35.74;31.31
31299;BME280;17927;52.350;13.402;2022-08-14T12:04:13;100633.88;;;35.82;30.48
31299;BME280;17927;52.350;13.402;2022-08-14T12:06:49;100631.13;;;35.91;30.90
31299;BME280;17927;52.350;13.402;2022-08-14T12:09:32;100631.88;;;35.97;31.34
31299;BME280;17927;52.350;13.402;2022-08-14T12:11:59;100614.56;;;36.04;31.56
31299;BME280;17927;52.350;13.402;2022-08-14T12:14:24;100617.44;;;36.12;31.18
31299;BME280;17927;52.350;13.402;2022-08-14T12:17:07;100624.44;;;36.24;31.09
31299;BME280;17927;52.350;13.402;2022-08-14T12:19:44;100625.34;;;36.33;31.61
31299;BME280;17927;52.350;13.402;2022-08-14T12:22:10;100617.69;;;36.48;31.34
31299;BME280;17927;52.350;13.402;2022-08-14T12:24:35;100624.22;;;36.66;31.34
31299;BME280;17927;52.350;13.402;2022-08-14T12:27:00;100609.88;;;36.85;31.87
31299;BME280;17927;52.350;13.402;2022-08-14T12:29:26;100613.00;;;37.06;31.38
31299;BME280;17927;52.350;13.402;2022-08-14T12:31:59;100600.09;;;37.31;30.79
31299;BME280;17927;52.350;13.402;2022-08-14T12:34:32;100602.66;;;37.59;30.90
31299;BME280;17927;52.350;13.402;2022-08-14T12:37:03;100591.25;;;37.91;29.50
31299;BME280;17927;52.350;13.402;2022-08-14T12:39:30;100580.41;;;38.19;29.60
31299;BME280;17927;52.350;13.402;2022-08-14T12:41:56;100585.16;;;38.45;29.55
31299;BME280;17927;52.350;13.402;2022-08-14T12:44:33;100572.94;;;38.71;28.22
31299;BME280;17927;52.350;13.402;2022-08-14T12:47:07;100570.84;;;38.98;27.60
31299;BME280;17927;52.350;13.402;2022-08-14T12:49:35;100575.34;;;39.29;27.72
31299;BME280;17927;52.350;13.402;2022-08-14T12:52:01;100565.38;;;39.65;27.96
31299;BME280;17927;52.350;13.402;2022-08-14T12:54:27;100573.06;;;39.98;27.16
31299;BME280;17927;52.350;13.402;2022-08-14T12:57:06;100568.84;;;40.26;26.51
31299;BME280;17927;52.350;13.402;2022-08-14T12:59:32;100563.56;;;40.49;26.33